createdAt,value
2019-02-05T00:02:26.821Z,83.81
2019-02-05T00:04:55.306Z,83.67
2019-02-05T00:07:23.503Z,84.41
2019-02-05T00:09:51.472Z,84.80
2019-02-05T00:12:18.973Z,83.31
2019-02-05T00:14:46.411Z,81.16
2019-02-05T00:17:13.860Z,81.49
2019-02-05T00:19:41.406Z,81.61
2019-02-05T00:22:08.933Z,82.21
2019-02-05T00:24:36.427Z,82.60
2019-02-05T00:27:04.070Z,82.89
2019-02-05T00:29:31.490Z,83.17
2019-02-05T00:31:58.932Z,83.59
2019-02-05T00:34:26.432Z,83.18
2019-02-05T00:36:53.784Z,83.15
2019-02-05T00:39:21.286Z,83.42
2019-02-05T00:41:48.709Z,84.13
2019-02-05T00:44:16.095Z,82.68
2019-02-05T00:46:43.537Z,83.21
2019-02-05T00:49:11.000Z,86.15
2019-02-05T00:51:38.407Z,82.65
2019-02-05T00:54:06.092Z,82.71
2019-02-05T00:56:33.672Z,82.14
2019-02-05T00:59:01.294Z,82.28
2019-02-05T01:01:28.819Z,81.43
2019-02-05T01:03:56.369Z,81.32
2019-02-05T01:06:23.770Z,81.72
2019-02-05T01:08:51.341Z,82.09
2019-02-05T01:11:18.808Z,82.46
2019-02-05T01:13:46.181Z,82.65
2019-02-05T01:16:13.628Z,82.88
2019-02-05T01:18:41.206Z,83.21
2019-02-05T01:21:08.566Z,83.74
2019-02-05T01:23:35.976Z,83.94
2019-02-05T01:26:03.848Z,84.29
2019-02-05T01:28:31.316Z,83.40
2019-02-05T01:30:58.705Z,83.32
2019-02-05T01:33:26.172Z,83.24
2019-02-05T01:35:53.716Z,84.36
2019-02-05T01:38:21.099Z,83.84
2019-02-05T01:40:48.547Z,84.21
2019-02-05T01:43:15.999Z,85.75
2019-02-05T01:45:43.406Z,87.06
2019-02-05T01:48:10.908Z,88.09
2019-02-05T01:50:38.364Z,88.28
2019-02-05T01:53:05.931Z,88.04
2019-02-05T01:55:33.284Z,88.70
2019-02-05T01:58:00.725Z,87.51
2019-02-05T02:00:30.922Z,88.26
2019-02-05T02:02:58.443Z,88.88
2019-02-05T02:05:26.408Z,88.64
2019-02-05T02:07:53.849Z,87.22
2019-02-05T02:10:23.274Z,86.70
2019-02-05T02:12:50.999Z,87.50
2019-02-05T02:15:18.591Z,87.82
2019-02-05T02:17:46.189Z,88.15
2019-02-05T02:20:15.622Z,88.38
2019-02-05T02:22:43.291Z,89.39
2019-02-05T02:25:11.304Z,89.10
2019-02-05T02:27:38.842Z,88.13
2019-02-05T02:30:11.169Z,87.62
2019-02-05T02:32:38.782Z,88.20
2019-02-05T02:35:06.272Z,88.92
2019-02-05T02:37:33.735Z,88.53
2019-02-05T02:40:01.194Z,88.49
2019-02-05T02:42:29.030Z,89.14
2019-02-05T02:44:56.545Z,89.93
2019-02-05T02:47:24.006Z,89.76
2019-02-05T02:49:51.446Z,89.63
2019-02-05T02:52:18.891Z,89.65
2019-02-05T02:54:46.328Z,90.87
2019-02-05T02:57:14.123Z,89.98
2019-02-05T02:59:41.690Z,89.54
2019-02-05T03:02:09.104Z,90.48
2019-02-05T03:04:36.622Z,88.42
2019-02-05T03:07:04.195Z,89.08
2019-02-05T03:09:31.648Z,89.01
2019-02-05T03:11:59.212Z,89.36
2019-02-05T03:14:26.579Z,89.66
2019-02-05T03:16:54.022Z,89.67
2019-02-05T03:19:21.867Z,89.68
2019-02-05T03:21:49.262Z,86.36
2019-02-05T03:24:16.679Z,85.91
2019-02-05T03:26:44.145Z,87.18
2019-02-05T03:29:11.566Z,88.18
2019-02-05T03:31:39.174Z,88.83
2019-02-05T03:34:06.734Z,89.78
2019-02-05T03:36:34.128Z,90.42
2019-02-05T03:39:01.579Z,90.15
2019-02-05T03:41:29.047Z,89.58
2019-02-05T03:43:56.403Z,90.14
2019-02-05T03:46:24.351Z,88.69
2019-02-05T03:48:52.076Z,88.82
2019-02-05T03:51:40.355Z,89.34
2019-02-05T03:54:38.661Z,90.49
2019-02-05T03:57:51.319Z,89.94
2019-02-05T04:01:09.148Z,89.68
2019-02-05T04:04:29.510Z,90.39
2019-02-05T04:07:18.144Z,90.99
2019-02-05T04:10:51.379Z,91.14
2019-02-05T04:13:48.503Z,91.38
2019-02-05T04:16:50.282Z,91.60
2019-02-05T04:19:47.961Z,92.34
2019-02-05T04:22:52.268Z,93.33
2019-02-05T04:25:47.507Z,93.80
2019-02-05T04:28:48.061Z,91.91
2019-02-05T04:31:38.770Z,92.19
2019-02-05T04:34:48.582Z,92.26
2019-02-05T04:37:42.747Z,92.71
2019-02-05T04:40:56.321Z,93.71
2019-02-05T04:44:02.574Z,93.42
2019-02-05T04:46:42.360Z,94.42
2019-02-05T04:49:54.346Z,92.91
2019-02-05T04:52:51.581Z,92.70
2019-02-05T04:55:35.328Z,93.54
2019-02-05T04:58:37.847Z,94.79
2019-02-05T05:01:36.955Z,94.02
2019-02-05T05:04:50.742Z,92.42
2019-02-05T05:07:47.085Z,89.20
2019-02-05T05:10:14.550Z,89.23
2019-02-05T05:12:42.021Z,89.61
2019-02-05T05:15:10.817Z,89.89
2019-02-05T05:17:38.271Z,90.56
2019-02-05T05:20:08.110Z,91.18
2019-02-05T05:22:36.213Z,91.08
2019-02-05T05:25:05.261Z,91.21
2019-02-05T05:27:33.107Z,91.01
2019-02-05T05:30:00.636Z,90.97
2019-02-05T05:32:28.055Z,91.64
2019-02-05T05:34:55.508Z,92.02
2019-02-05T05:37:22.992Z,92.11
2019-02-05T05:39:50.438Z,93.55
2019-02-05T05:42:17.887Z,91.94
2019-02-05T05:44:45.661Z,89.22
2019-02-05T05:47:13.135Z,87.30
2019-02-05T05:49:40.600Z,87.89
2019-02-05T05:52:08.091Z,86.58
2019-02-05T05:54:35.549Z,88.56
2019-02-05T05:57:03.146Z,88.69
2019-02-05T05:59:30.664Z,89.55
2019-02-05T06:01:58.157Z,87.76
2019-02-05T06:04:25.844Z,87.20
2019-02-05T06:06:53.282Z,88.05
2019-02-05T06:09:20.697Z,88.29
2019-02-05T06:11:48.160Z,88.51
2019-02-05T06:14:15.594Z,88.30
2019-02-05T06:16:43.216Z,88.73
2019-02-05T06:19:10.684Z,88.31
2019-02-05T06:21:38.335Z,88.54
2019-02-05T06:24:05.880Z,88.09
2019-02-05T06:26:33.397Z,88.83
2019-02-05T06:29:01.007Z,88.65
2019-02-05T06:31:28.445Z,87.99
2019-02-05T06:33:56.001Z,87.96
2019-02-05T06:36:23.446Z,88.81
2019-02-05T06:38:51.005Z,89.48
2019-02-05T06:41:18.966Z,87.00
2019-02-05T06:43:46.366Z,87.43
2019-02-05T06:46:13.883Z,86.18
2019-02-05T06:48:41.300Z,84.83
2019-02-05T06:51:08.774Z,85.29
2019-02-05T06:53:36.222Z,86.04
2019-02-05T06:56:04.311Z,86.51
2019-02-05T06:58:31.855Z,86.65
2019-02-05T07:00:59.626Z,87.12
2019-02-05T07:03:27.099Z,87.76
2019-02-05T07:05:54.572Z,87.31
2019-02-05T07:08:22.036Z,88.00
2019-02-05T07:10:49.838Z,87.35
2019-02-05T07:13:17.330Z,86.16
2019-02-05T07:15:44.779Z,87.40
2019-02-05T07:18:12.525Z,86.12
2019-02-05T07:20:40.221Z,85.87
2019-02-05T07:23:07.827Z,86.26
2019-02-05T07:25:35.268Z,87.75
2019-02-05T07:28:02.813Z,84.82
2019-02-05T07:30:30.314Z,84.09
2019-02-05T07:32:57.946Z,84.27
2019-02-05T07:35:25.484Z,85.18
2019-02-05T07:37:53.444Z,84.88
2019-02-05T07:40:23.083Z,83.38
2019-02-05T07:42:50.577Z,82.29
2019-02-05T07:45:19.408Z,82.04
2019-02-05T07:47:46.976Z,84.56
2019-02-05T07:50:16.733Z,82.84
2019-02-05T07:52:44.342Z,83.24
2019-02-05T07:55:12.290Z,82.97
2019-02-05T07:57:40.190Z,82.92
2019-02-05T08:00:12.354Z,81.91
2019-02-05T08:02:39.849Z,82.10
2019-02-05T08:05:11.139Z,83.01
2019-02-05T08:07:38.612Z,84.44
2019-02-05T08:10:06.995Z,82.03
2019-02-05T08:12:34.503Z,83.35
2019-02-05T08:15:01.913Z,81.53
2019-02-05T08:17:29.816Z,82.42
2019-02-05T08:19:57.679Z,82.59
2019-02-05T08:22:25.396Z,83.26
2019-02-05T08:24:52.841Z,83.68
2019-02-05T08:27:20.246Z,84.08
2019-02-05T08:29:47.732Z,83.92
2019-02-05T08:32:15.271Z,83.74
2019-02-05T08:34:42.796Z,83.74
2019-02-05T08:37:10.363Z,83.12
2019-02-05T08:39:38.161Z,82.45
2019-02-05T08:42:05.564Z,82.31
2019-02-05T08:44:33.051Z,82.68
2019-02-05T08:47:00.493Z,82.74
2019-02-05T08:49:27.936Z,81.96
2019-02-05T08:51:55.413Z,82.53
2019-02-05T08:54:22.897Z,83.24
2019-02-05T08:56:50.277Z,82.93
2019-02-05T08:59:18.120Z,83.26
2019-02-05T09:01:46.531Z,83.32
2019-02-05T09:04:14.066Z,82.12
2019-02-05T09:06:41.525Z,82.25
2019-02-05T09:09:09.071Z,82.04
2019-02-05T09:11:36.564Z,82.53
2019-02-05T09:14:10.873Z,82.21
2019-02-05T09:16:33.581Z,81.56
2019-02-05T09:19:01.189Z,82.15
2019-02-05T09:21:28.740Z,82.50
2019-02-05T09:23:56.213Z,80.53
2019-02-05T09:26:23.724Z,80.34
2019-02-05T09:28:52.542Z,80.47
2019-02-05T09:31:20.142Z,80.69
2019-02-05T09:33:47.706Z,80.83
2019-02-05T09:36:15.147Z,82.00
2019-02-05T09:38:42.580Z,81.50
2019-02-05T09:41:10.113Z,79.18
2019-02-05T09:43:37.578Z,78.84
2019-02-05T09:46:05.034Z,81.53
2019-02-05T09:48:32.467Z,79.29
2019-02-05T09:50:59.937Z,78.70
2019-02-05T09:53:27.539Z,76.92
2019-02-05T09:55:54.950Z,75.82
2019-02-05T09:58:22.392Z,74.48
2019-02-05T10:00:49.843Z,75.20
2019-02-05T10:03:17.803Z,75.68
2019-02-05T10:05:45.615Z,75.97
2019-02-05T10:08:13.112Z,76.49
2019-02-05T10:10:40.579Z,76.69
2019-02-05T10:13:08.620Z,76.82
2019-02-05T10:15:37.412Z,77.25
2019-02-05T10:18:07.860Z,76.75
2019-02-05T10:20:35.367Z,76.71
2019-02-05T10:23:04.758Z,75.73
2019-02-05T10:25:32.292Z,74.10
2019-02-05T10:27:59.763Z,74.36
2019-02-05T10:30:29.719Z,74.86
2019-02-05T10:32:57.299Z,75.35
2019-02-05T10:35:25.095Z,75.99
2019-02-05T10:37:52.896Z,76.27
2019-02-05T10:40:21.209Z,76.60
2019-02-05T10:42:48.610Z,76.97
2019-02-05T10:45:16.976Z,76.23
2019-02-05T10:47:44.604Z,75.23
2019-02-05T10:50:15.419Z,74.18
2019-02-05T10:52:43.628Z,73.81
2019-02-05T10:55:12.750Z,72.55
2019-02-05T10:57:40.175Z,71.97
2019-02-05T11:00:19.553Z,72.10
2019-02-05T11:02:47.661Z,72.46
2019-02-05T11:05:18.043Z,72.31
2019-02-05T11:07:46.007Z,72.73
2019-02-05T11:10:13.911Z,72.68
2019-02-05T11:12:41.394Z,72.35
2019-02-05T11:15:11.954Z,72.97
2019-02-05T11:17:39.309Z,72.76
2019-02-05T11:20:10.803Z,72.38
2019-02-05T11:22:38.373Z,73.90
2019-02-05T11:25:06.892Z,74.00
2019-02-05T11:27:37.299Z,73.67
2019-02-05T11:30:07.880Z,72.90
2019-02-05T11:32:35.312Z,72.98
2019-02-05T11:35:03.397Z,73.14
2019-02-05T11:37:30.784Z,72.89
2019-02-05T11:39:58.297Z,72.50
2019-02-05T11:42:26.143Z,71.78
2019-02-05T11:44:53.722Z,71.26
2019-02-05T11:47:21.245Z,71.40
2019-02-05T11:49:48.673Z,70.27
2019-02-05T11:52:16.037Z,69.54
2019-02-05T11:54:43.517Z,69.63
2019-02-05T11:57:11.180Z,69.81
2019-02-05T11:59:38.687Z,69.92
2019-02-05T12:02:06.887Z,69.67
2019-02-05T12:04:34.359Z,69.22
2019-02-05T12:07:02.803Z,68.85
2019-02-05T12:09:30.274Z,67.45
2019-02-05T12:11:57.857Z,67.39
2019-02-05T12:14:25.318Z,67.32
2019-02-05T12:16:52.729Z,67.03
2019-02-05T12:19:20.225Z,67.26
2019-02-05T12:21:48.056Z,67.49
2019-02-05T12:24:15.709Z,66.84
2019-02-05T12:26:44.466Z,66.28
2019-02-05T12:29:12.049Z,66.12
2019-02-05T12:31:39.516Z,66.08
2019-02-05T12:34:07.098Z,65.86
2019-02-05T12:36:34.756Z,65.33
2019-02-05T12:39:02.212Z,64.53
2019-02-05T12:41:30.040Z,64.91
2019-02-05T12:43:59.663Z,64.77
2019-02-05T12:46:26.930Z,64.68
2019-02-05T12:48:54.371Z,65.01
2019-02-05T12:51:22.691Z,65.55
2019-02-05T12:53:50.084Z,66.21
2019-02-05T12:56:17.450Z,66.06
2019-02-05T12:58:45.119Z,66.58
2019-02-05T13:01:12.921Z,66.59
2019-02-05T13:03:40.891Z,65.39
2019-02-05T13:06:08.478Z,65.48
2019-02-05T13:08:35.951Z,65.46
2019-02-05T13:11:03.687Z,64.81
2019-02-05T13:13:31.257Z,64.37
2019-02-05T13:15:58.746Z,63.67
2019-02-05T13:18:26.189Z,63.73
2019-02-05T13:20:53.666Z,63.66
2019-02-05T13:23:21.145Z,63.60
2019-02-05T13:25:48.560Z,63.51
2019-02-05T13:28:16.235Z,63.22
2019-02-05T13:30:43.746Z,63.45
2019-02-05T13:33:13.561Z,63.67
2019-02-05T13:35:41.247Z,63.69
2019-02-05T13:38:08.734Z,63.88
2019-02-05T13:40:36.309Z,63.98
2019-02-05T13:43:04.540Z,64.29
2019-02-05T13:45:33.175Z,64.53
2019-02-05T13:48:01.133Z,64.29
2019-02-05T13:50:33.405Z,64.41
2019-02-05T13:52:59.764Z,64.46
2019-02-05T13:55:29.881Z,64.50
2019-02-05T13:57:57.496Z,64.78
2019-02-05T14:00:27.988Z,64.78
2019-02-05T14:02:55.686Z,64.92
2019-02-05T14:05:23.462Z,64.78
2019-02-05T14:07:50.897Z,64.99
2019-02-05T14:10:21.471Z,65.07
2019-02-05T14:12:48.941Z,65.44
2019-02-05T14:15:19.026Z,65.39
2019-02-05T14:17:46.476Z,65.71
2019-02-05T14:20:14.155Z,66.07
2019-02-05T14:22:41.790Z,67.01
2019-02-05T14:25:10.794Z,67.16
2019-02-05T14:27:38.284Z,66.40
2019-02-05T14:30:09.032Z,66.79
2019-02-05T14:32:36.514Z,65.93
2019-02-05T14:35:05.738Z,66.94
2019-02-05T14:37:33.138Z,67.55
2019-02-05T14:40:00.688Z,67.98
2019-02-05T14:42:28.153Z,68.32
2019-02-05T14:44:55.636Z,68.56
2019-02-05T14:47:22.999Z,69.00
2019-02-05T14:49:50.461Z,69.61
2019-02-05T14:52:18.012Z,69.69
2019-02-05T14:54:45.392Z,70.23
2019-02-05T14:57:13.068Z,70.70
2019-02-05T14:59:40.621Z,71.05
2019-02-05T15:02:08.142Z,71.20
2019-02-05T15:04:35.669Z,71.68
2019-02-05T15:07:03.794Z,72.09
2019-02-05T15:09:31.227Z,72.60
2019-02-05T15:11:58.592Z,73.30
2019-02-05T15:14:26.022Z,73.88
2019-02-05T15:16:53.456Z,74.20
2019-02-05T15:19:21.005Z,74.36
2019-02-05T15:21:48.413Z,74.71
2019-02-05T15:24:15.856Z,74.96
2019-02-05T15:26:43.318Z,75.18
2019-02-05T15:29:10.784Z,75.32
2019-02-05T15:31:38.290Z,75.69
2019-02-05T15:34:17.042Z,75.82
2019-02-05T15:36:47.162Z,76.22
2019-02-05T15:39:15.380Z,76.39
2019-02-05T15:41:45.355Z,75.68
2019-02-05T15:44:13.184Z,76.11
2019-02-05T15:46:40.806Z,76.48
2019-02-05T15:49:08.240Z,76.96
2019-02-05T15:51:35.637Z,77.16
2019-02-05T15:54:03.455Z,76.20
2019-02-05T15:56:30.992Z,76.80
2019-02-05T15:58:58.522Z,77.35
2019-02-05T16:01:26.459Z,77.78
2019-02-05T16:03:53.981Z,77.90
2019-02-05T16:06:23.978Z,78.07
2019-02-05T16:08:51.660Z,78.34
2019-02-05T16:11:19.177Z,78.74
2019-02-05T16:13:46.639Z,79.09
2019-02-05T16:16:14.212Z,79.07
2019-02-05T16:18:42.018Z,80.75
2019-02-05T16:21:09.399Z,79.01
2019-02-05T16:23:36.849Z,78.88
2019-02-05T16:26:04.424Z,79.67
2019-02-05T16:28:31.859Z,78.23
2019-02-05T16:30:59.226Z,78.79
2019-02-05T16:33:26.799Z,78.51
2019-02-05T16:35:55.024Z,79.61
2019-02-05T16:38:23.207Z,76.77
2019-02-05T16:40:51.142Z,76.56
2019-02-05T16:43:18.640Z,76.82
2019-02-05T16:45:46.023Z,77.65
2019-02-05T16:48:13.580Z,78.26
2019-02-05T16:50:42.910Z,78.67
2019-02-05T16:53:10.842Z,78.56
2019-02-05T16:55:38.386Z,77.13
2019-02-05T16:58:06.535Z,77.04
2019-02-05T17:00:34.413Z,77.83
2019-02-05T17:03:02.074Z,78.18
2019-02-05T17:05:33.542Z,77.65
2019-02-05T17:08:01.309Z,77.30
2019-02-05T17:10:29.188Z,77.95
2019-02-05T17:12:56.581Z,78.53
2019-02-05T17:15:24.278Z,80.35
2019-02-05T17:17:52.005Z,78.03
2019-02-05T17:20:26.809Z,78.87
2019-02-05T17:22:54.429Z,79.48
2019-02-05T17:25:23.428Z,79.60
2019-02-05T17:27:51.102Z,81.24
2019-02-05T17:30:23.560Z,79.11
2019-02-05T17:32:51.177Z,78.90
2019-02-05T17:35:19.435Z,79.58
2019-02-05T17:37:47.144Z,81.21
2019-02-05T17:40:16.585Z,80.48
2019-02-05T17:42:44.016Z,78.83
2019-02-05T17:45:16.926Z,78.59
2019-02-05T17:47:44.562Z,78.10
2019-02-05T17:50:12.224Z,76.92
2019-02-05T17:52:40.546Z,76.48
2019-02-05T17:55:10.076Z,74.87
2019-02-05T17:57:41.095Z,75.42
2019-02-05T18:00:51.527Z,76.52
2019-02-05T18:03:23.440Z,77.08
2019-02-05T18:05:54.361Z,77.82
2019-02-05T18:08:22.046Z,78.09
2019-02-05T18:10:49.609Z,79.32
2019-02-05T18:13:17.150Z,78.18
2019-02-05T18:15:44.666Z,77.98
2019-02-05T18:18:12.477Z,78.37
2019-02-05T18:20:39.948Z,78.75
2019-02-05T18:23:07.649Z,79.54
2019-02-05T18:25:35.189Z,80.02
2019-02-05T18:28:03.355Z,79.79
2019-02-05T18:30:31.757Z,80.36
2019-02-05T18:33:03.600Z,80.71
2019-02-05T18:35:29.388Z,80.93
2019-02-05T18:37:57.007Z,81.04
2019-02-05T18:40:24.655Z,81.37
2019-02-05T18:42:52.728Z,81.29
2019-02-05T18:45:20.171Z,81.44
2019-02-05T18:47:47.967Z,80.81
2019-02-05T18:50:18.249Z,80.07
2019-02-05T18:52:46.198Z,79.65
2019-02-05T18:55:14.411Z,79.55
2019-02-05T18:57:41.840Z,79.36
2019-02-05T19:00:19.524Z,79.91
2019-02-05T19:02:47.111Z,80.61
2019-02-05T19:05:14.797Z,79.94
2019-02-05T19:07:42.638Z,78.86
2019-02-05T19:10:11.971Z,79.48
2019-02-05T19:12:39.507Z,78.83
2019-02-05T19:15:14.336Z,79.16
2019-02-05T19:17:41.798Z,79.68
2019-02-05T19:20:09.589Z,79.88
2019-02-05T19:22:37.545Z,81.73
2019-02-05T19:25:37.483Z,80.19
2019-02-05T19:28:05.186Z,79.61
2019-02-05T19:30:33.594Z,80.14
2019-02-05T19:33:02.263Z,79.67
2019-02-05T19:35:29.691Z,80.88
2019-02-05T19:37:57.117Z,78.29
2019-02-05T19:40:24.568Z,79.02
2019-02-05T19:42:51.955Z,79.96
2019-02-05T19:45:44.979Z,80.33
2019-02-05T19:48:19.343Z,80.52
2019-02-05T19:50:47.554Z,80.45
2019-02-05T19:53:15.109Z,80.29
2019-02-05T19:55:42.507Z,79.98
2019-02-05T19:58:12.920Z,80.08
2019-02-05T20:00:40.679Z,80.27
2019-02-05T20:03:08.145Z,80.14
2019-02-05T20:05:35.701Z,80.44
2019-02-05T20:08:03.524Z,79.00
2019-02-05T20:10:30.989Z,78.90
2019-02-05T20:12:58.535Z,79.40
2019-02-05T20:15:26.087Z,79.71
2019-02-05T20:17:53.513Z,80.26
2019-02-05T20:20:20.995Z,80.59
2019-02-05T20:22:48.912Z,80.38
2019-02-05T20:25:16.610Z,80.70
2019-02-05T20:27:44.175Z,79.25
2019-02-05T20:30:13.827Z,78.67
2019-02-05T20:32:41.261Z,78.83
2019-02-05T20:35:08.856Z,79.59
2019-02-05T20:37:36.312Z,80.24
2019-02-05T20:40:08.319Z,80.40
2019-02-05T20:42:35.861Z,80.57
2019-02-05T20:45:04.045Z,80.64
2019-02-05T20:47:32.279Z,80.54
2019-02-05T20:49:59.731Z,79.92
2019-02-05T20:52:27.179Z,80.25
2019-02-05T20:54:54.573Z,80.25
2019-02-05T20:57:22.026Z,80.15
2019-02-05T20:59:49.858Z,80.27
2019-02-05T21:02:17.444Z,80.57
2019-02-05T21:04:48.527Z,80.79
2019-02-05T21:07:14.306Z,81.23
2019-02-05T21:09:42.501Z,81.49
2019-02-05T21:12:09.966Z,81.43
2019-02-05T21:14:37.457Z,81.47
2019-02-05T21:17:04.975Z,81.40
2019-02-05T21:19:32.722Z,81.29
2019-02-05T21:22:00.171Z,81.18
2019-02-05T21:24:27.565Z,81.38
2019-02-05T21:26:54.994Z,81.50
2019-02-05T21:29:22.536Z,81.30
2019-02-05T21:31:49.986Z,81.45
2019-02-05T21:34:17.753Z,81.49
2019-02-05T21:36:45.230Z,81.79
2019-02-05T21:39:12.846Z,81.51
2019-02-05T21:41:40.440Z,81.59
2019-02-05T21:44:08.089Z,81.03
2019-02-05T21:46:35.516Z,80.88
2019-02-05T21:49:03.351Z,81.23
2019-02-05T21:51:40.347Z,81.13
2019-02-05T21:54:00.086Z,81.26
2019-02-05T21:56:28.054Z,81.03
2019-02-05T21:58:55.483Z,81.09
2019-02-05T22:01:23.311Z,81.07
2019-02-05T22:03:50.939Z,80.93
2019-02-05T22:06:18.664Z,81.00
2019-02-05T22:08:46.126Z,80.62
2019-02-05T22:11:13.584Z,80.59
2019-02-05T22:13:41.057Z,80.97
2019-02-05T22:16:08.472Z,81.22
2019-02-05T22:18:35.901Z,81.50
2019-02-05T22:21:03.923Z,81.30
2019-02-05T22:23:31.706Z,81.15
2019-02-05T22:25:59.142Z,80.76
2019-02-05T22:28:26.667Z,80.98
2019-02-05T22:30:54.098Z,80.72
2019-02-05T22:33:21.468Z,80.77
2019-02-05T22:35:49.042Z,80.64
2019-02-05T22:38:16.487Z,80.64
2019-02-05T22:40:43.847Z,80.95
2019-02-05T22:43:11.704Z,80.69
2019-02-05T22:45:41.097Z,80.96
2019-02-05T22:48:08.614Z,80.70
2019-02-05T22:50:36.179Z,81.15
2019-02-05T22:53:03.973Z,80.89
2019-02-05T22:55:31.342Z,80.92
2019-02-05T22:57:58.799Z,81.37
2019-02-05T23:00:54.393Z,81.59
2019-02-05T23:03:36.796Z,81.82
2019-02-05T23:06:39.990Z,81.46
2019-02-05T23:09:23.565Z,81.42
2019-02-05T23:12:28.617Z,80.92
2019-02-05T23:15:22.261Z,81.25
2019-02-05T23:17:49.884Z,81.12
2019-02-05T23:20:19.416Z,80.84
2019-02-05T23:22:47.222Z,80.79
2019-02-05T23:25:14.756Z,80.85
2019-02-05T23:27:42.289Z,80.96
2019-02-05T23:30:25.316Z,81.24
2019-02-05T23:32:52.764Z,80.94
2019-02-05T23:35:20.244Z,81.42
2019-02-05T23:37:47.946Z,81.76
2019-02-05T23:40:15.674Z,82.00
2019-02-05T23:42:43.125Z,81.76
2019-02-05T23:45:10.713Z,82.46
2019-02-05T23:47:38.264Z,82.44
2019-02-05T23:50:07.069Z,82.80
2019-02-05T23:52:34.433Z,82.33
2019-02-05T23:55:02.067Z,82.60
2019-02-05T23:57:29.490Z,82.38
2019-02-05T23:59:56.873Z,82.08
